KELY/ELY METAR and TAF weather

Enter ICAO airport designator
Station Type Date Time Source
KELY METAR 2019/08/25 01:53 UTC NOAA

KELY 250153Z AUTO 23007KT 10SM CLR 29/M03 A3014 RMK AO2 SLP096 T02941028


Station Type Date Time Source
KELY Decoded METAR 2019/08/25 01:53 UTC NOAA

Station name not available
Aug 24, 2019 - 09:53 PM EDT / 2019.08.25 0153 UTC
Wind: from the SW (230 degrees) at 8 MPH (7 KT):0
Visibility: 10 mile(s):0
Sky conditions: clear
Temperature: 84.9 F (29.4 C)
Dew Point: 27.0 F (-2.8 C)
Relative Humidity: 12%
Pressure (altimeter): 30.14 in. Hg (1020 hPa)
ob: KELY 250153Z AUTO 23007KT 10SM CLR 29/M03 A3014 RMK AO2 SLP096 T02941028
cycle: 2

Station Type Date Time Source
KELY TAF 2019/08/24 18:42 UTC NOAA

TAF KELY 241739Z 2418/2518 20010KT P6SM SCT250
FM241900 22010G20KT P6SM FEW120 SCT250
FM250200 18010KT P6SM SCT250
FM251700 26013G23KT P6SM FEW250

Example: see airport list